You are not logged in, Click here to log in
機場資訊:ROAH Welcome to Taiwan Airways 台灣虛擬航空
ICAO: ROAH Country: 日本沖繩縣那霸市
Latitude: 26.2064 Longitude: 127.647
Total Arrivals: 268 Total Departures: 251
Latest Arrival: JX5836 (RCTP-ROAH)Arthur. Kung Latest Departure: FE1129 (ROAH-RCTP)Stone. Chang
Scenery:
METAR : ROAH 151800Z 03008KT 9999 FEW030 20/16 Q1016

那覇空港OKA

You are accessing this site from IP address 18.205.96.39. Virtual Airline. CMS by phpVMS.Website designed by Zumeweb and edited by Theo Bearman.
There is 0 User(s) Online: | and 2 Guest(s) Online.
All information on this site is for fight simulation purposes only. This site is for flight logging for pilots of Virtual Airline&模擬飛行論壇 FlySim only.